Time;durP1;ratioP1;P1;durP2;ratioP2;P2;SDS_P1;SDS_P2;PMS_P1;PMS_P2;Temp;Humidity;BMP_temperature;BMP_pressure;BME280_temperature;BME280_humidity;BME280_pressure;Samples;Min_cycle;Max_cycle;Signal;HPM_P1;HPM_P2
2022/05/26 00:02:27;;;;;;;2.37;0.93;;;;;;;13.02;55.93;96613.72;10359817;28;96829;-65
2022/05/26 00:07:31;;;;;;;2.17;0.90;;;;;;;12.99;55.64;96624.50;10362554;28;97729;-65
2022/05/26 00:12:35;;;;;;;1.85;1.05;;;;;;;12.98;55.87;96615.81;10363105;28;97083;-65
2022/05/26 00:17:38;;;;;;;3.20;1.00;;;;;;;12.91;56.19;96619.19;10362921;28;97010;-65
2022/05/26 00:22:41;;;;;;;4.18;1.05;;;;;;;12.83;56.58;96619.94;10360679;28;97090;-65
2022/05/26 00:27:45;;;;;;;3.58;1.08;;;;;;;12.67;57.02;96607.53;10356802;28;96965;-65
2022/05/26 00:32:49;;;;;;;0.97;0.70;;;;;;;12.60;57.16;96614.34;10364913;28;96787;-65
2022/05/26 00:37:52;;;;;;;1.73;1.00;;;;;;;12.47;57.86;96612.94;10357745;28;96960;-65
2022/05/26 00:42:56;;;;;;;1.73;0.60;;;;;;;12.44;57.52;96618.47;10360161;28;96872;-65
2022/05/26 00:48:00;;;;;;;1.85;0.90;;;;;;;12.24;58.49;96620.41;10364007;28;96874;-65
2022/05/26 00:53:13;;;;;;;2.73;0.80;;;;;;;12.11;58.85;96615.53;10351593;28;97221;-65
2022/05/26 00:58:20;;;;;;;1.88;1.08;;;;;;;12.03;58.94;96620.69;10373338;28;97146;-65
2022/05/26 01:03:29;;;;;;;2.35;0.80;;;;;;;11.90;59.47;96615.81;10362628;28;96720;-65
2022/05/26 01:08:35;;;;;;;1.80;0.93;;;;;;;11.84;59.58;96605.09;10350461;28;96857;-65
2022/05/26 01:13:44;;;;;;;1.40;0.70;;;;;;;11.67;59.99;96599.66;10362580;28;97596;-65
2022/05/26 01:19:10;;;;;;;2.83;0.70;;;;;;;11.58;59.75;96611.00;10361535;28;96786;-65
2022/05/26 01:24:52;;;;;;;1.40;0.80;;;;;;;11.45;60.72;96618.34;10365547;28;97767;-65
2022/05/26 01:30:10;;;;;;;1.80;0.80;;;;;;;11.32;61.52;96601.19;10356188;28;97154;-65
2022/05/26 01:35:23;;;;;;;2.30;0.75;;;;;;;11.24;61.16;96602.84;10359518;28;97013;-65
2022/05/26 01:40:32;;;;;;;1.48;0.80;;;;;;;11.16;61.99;96616.63;10348738;28;97848;-65
2022/05/26 01:45:41;;;;;;;1.23;0.70;;;;;;;11.01;62.44;96618.03;10357643;28;97085;-65
2022/05/26 01:50:54;;;;;;;1.00;0.90;;;;;;;10.95;62.12;96622.06;10357350;28;96849;-65
2022/05/26 01:56:06;;;;;;;2.53;1.00;;;;;;;10.83;62.67;96616.16;10350792;28;98877;-66
2022/05/26 02:01:14;;;;;;;1.80;0.70;;;;;;;10.84;62.48;96617.78;10355303;28;99607;-65
2022/05/26 02:06:22;;;;;;;2.67;0.80;;;;;;;10.81;62.52;96618.09;10359330;28;96936;-65
2022/05/26 02:11:26;;;;;;;1.88;0.80;;;;;;;10.66;62.37;96611.63;10365667;28;98617;-65
2022/05/26 02:16:48;;;;;;;3.75;0.80;;;;;;;10.48;63.54;96619.31;10351252;28;101433;-65
2022/05/26 02:22:02;;;;;;;2.00;0.80;;;;;;;10.36;63.30;96603.81;10367262;28;98990;-65
2022/05/26 02:27:06;;;;;;;2.40;0.85;;;;;;;10.34;63.89;96610.13;10356693;28;97239;-65
2022/05/26 02:32:12;;;;;;;1.75;0.70;;;;;;;10.22;64.99;96612.06;10353852;28;98592;-65
2022/05/26 02:37:17;;;;;;;1.05;0.60;;;;;;;10.11;65.22;96615.59;10345839;28;98581;-65
2022/05/26 02:42:22;;;;;;;3.45;0.85;;;;;;;10.01;65.38;96620.00;10361157;28;98930;-65
2022/05/26 02:47:41;;;;;;;1.77;0.80;;;;;;;10.00;65.41;96618.34;10363159;28;99201;-65
2022/05/26 02:52:54;;;;;;;1.02;0.70;;;;;;;9.95;65.46;96626.56;10353791;28;96761;-65
2022/05/26 02:58:07;;;;;;;1.80;0.85;;;;;;;9.85;66.12;96631.78;10358086;28;99154;-65
2022/05/26 03:03:15;;;;;;;2.03;0.70;;;;;;;9.92;65.75;96633.84;10353632;28;97869;-65
2022/05/26 03:08:22;;;;;;;1.00;0.60;;;;;;;9.86;65.07;96630.00;10354490;28;98415;-65
2022/05/26 03:13:26;;;;;;;1.90;0.80;;;;;;;9.80;65.93;96638.34;10335952;28;97191;-65
2022/05/26 03:18:30;;;;;;;0.95;0.68;;;;;;;9.76;65.67;96627.34;10349984;28;98316;-65
2022/05/26 03:23:36;;;;;;;1.52;0.77;;;;;;;9.70;65.78;96645.31;10352655;28;96948;-65
2022/05/26 03:28:39;;;;;;;1.60;0.73;;;;;;;9.71;65.73;96642.56;10345580;28;97561;-65
2022/05/26 03:44:25;;;;;;;1.20;0.90;;;;;;;9.54;66.34;96644.03;10343160;28;97927;-65
2022/05/26 03:49:28;;;;;;;1.10;0.87;;;;;;;9.60;66.54;96643.50;10347054;28;98406;-65
2022/05/26 03:54:33;;;;;;;1.33;0.80;;;;;;;9.67;66.60;96651.63;10355718;28;98090;-65
2022/05/26 03:59:40;;;;;;;1.00;0.70;;;;;;;9.41;67.15;96661.66;10355986;28;97143;-65
2022/05/26 04:04:42;;;;;;;1.52;0.68;;;;;;;9.32;67.72;96665.84;10350112;28;98519;-65
2022/05/26 04:09:47;;;;;;;2.70;0.77;;;;;;;9.33;68.19;96672.69;10363716;28;98620;-65
2022/05/26 04:14:50;;;;;;;3.47;0.90;;;;;;;9.32;68.07;96676.28;10351894;28;98346;-65
2022/05/26 04:19:53;;;;;;;2.63;0.95;;;;;;;9.27;68.31;96675.84;10373636;28;97269;-65
2022/05/26 04:24:59;;;;;;;1.92;0.75;;;;;;;9.39;68.88;96674.81;10366007;28;97045;-65
2022/05/26 04:30:04;;;;;;;1.10;0.68;;;;;;;9.50;68.37;96678.31;10364670;28;96848;-65
2022/05/26 04:35:09;;;;;;;1.20;0.80;;;;;;;9.47;68.45;96695.88;10360002;28;98154;-65
2022/05/26 04:40:14;;;;;;;1.70;0.70;;;;;;;9.56;68.54;96698.66;10359393;28;96846;-65
2022/05/26 04:45:16;;;;;;;1.05;0.70;;;;;;;9.77;68.46;96701.25;10362703;28;98481;-65
2022/05/26 04:50:21;;;;;;;0.80;0.60;;;;;;;9.84;68.20;96708.41;10350354;28;97023;-65
2022/05/26 04:55:25;;;;;;;1.63;0.63;;;;;;;10.00;67.88;96701.88;10365046;28;97734;-65
2022/05/26 05:00:28;;;;;;;1.15;0.60;;;;;;;10.15;67.38;96705.75;10352827;28;98959;-65
2022/05/26 05:05:31;;;;;;;2.47;0.80;;;;;;;10.32;67.61;96706.06;10354628;28;98488;-65
2022/05/26 05:10:35;;;;;;;1.15;0.60;;;;;;;10.43;66.74;96708.56;10368335;28;98300;-65
2022/05/26 05:15:42;;;;;;;1.83;0.70;;;;;;;10.54;66.13;96711.03;10356374;28;97741;-65
2022/05/26 05:20:46;;;;;;;1.88;0.63;;;;;;;10.74;66.42;96716.31;10360409;28;100337;-65
2022/05/26 05:25:53;;;;;;;1.65;0.80;;;;;;;10.94;66.28;96706.66;10364631;28;97282;-65
2022/05/26 05:31:01;;;;;;;2.45;0.73;;;;;;;11.15;65.46;96714.34;10357813;28;100495;-65
2022/05/26 05:36:08;;;;;;;0.88;0.60;;;;;;;11.28;65.21;96725.34;10362664;28;98435;-65
2022/05/26 05:41:12;;;;;;;1.75;0.70;;;;;;;11.51;65.93;96727.66;10364486;28;100091;-65
2022/05/26 05:46:19;;;;;;;1.65;0.60;;;;;;;11.79;65.41;96723.31;10352917;28;97453;-65
2022/05/26 05:51:22;;;;;;;4.05;0.70;;;;;;;12.12;65.09;96724.53;10347933;28;97859;-65
2022/05/26 05:56:26;;;;;;;2.60;0.77;;;;;;;12.43;64.25;96732.09;10353043;28;98582;-65
2022/05/26 06:01:30;;;;;;;1.77;0.75;;;;;;;12.65;64.07;96735.28;10351768;28;102118;-65
2022/05/26 06:06:36;;;;;;;2.38;0.80;;;;;;;12.82;63.19;96737.09;10355875;28;98634;-65
2022/05/26 06:11:41;;;;;;;2.75;0.85;;;;;;;12.97;63.18;96733.97;10362513;28;97931;-65
2022/05/26 06:16:45;;;;;;;2.03;0.70;;;;;;;13.11;62.52;96730.81;10353196;28;99055;-65
2022/05/26 06:21:48;;;;;;;;;;;;;;;13.19;62.23;96738.75;10354064;28;96975;-65
2022/05/26 06:26:53;;;;;;;1.92;0.60;;;;;;;13.26;61.96;96738.97;10357119;28;96811;-65
2022/05/26 06:37:24;;;;;;;0.60;0.45;;;;;;;13.41;61.36;96740.06;10360866;28;97071;-65
2022/05/26 06:42:28;;;;;;;1.42;0.70;;;;;;;13.48;61.61;96748.16;10354820;28;96899;-65
2022/05/26 06:47:31;;;;;;;1.03;0.53;;;;;;;13.59;61.18;96745.28;10361262;28;97146;-65
2022/05/26 06:52:33;;;;;;;1.05;0.60;;;;;;;13.71;61.18;96748.47;10360163;28;98071;-65
2022/05/26 06:57:38;;;;;;;0.95;0.50;;;;;;;13.91;61.54;96761.38;10363234;28;97632;-65
2022/05/26 07:02:40;;;;;;;1.10;0.70;;;;;;;14.09;60.58;96762.16;10360125;28;97034;-65
2022/05/26 07:07:43;;;;;;;1.42;0.65;;;;;;;14.18;59.71;96761.19;10359243;28;98749;-65
2022/05/26 07:12:48;;;;;;;1.48;0.75;;;;;;;14.24;60.13;96766.81;10348923;28;98343;-65
2022/05/26 07:17:51;;;;;;;2.08;0.80;;;;;;;14.27;59.48;96764.69;10351906;28;100371;-65
2022/05/26 07:22:54;;;;;;;1.77;0.70;;;;;;;14.50;59.83;96769.41;10355167;28;98147;-65
2022/05/26 07:27:58;;;;;;;1.65;0.93;;;;;;;14.60;59.12;96775.34;10350838;28;100322;-65
2022/05/26 07:33:02;;;;;;;1.15;0.70;;;;;;;14.82;58.83;96773.94;10349418;28;98452;-65
2022/05/26 07:43:29;;;;;;;0.65;0.55;;;;;;;15.42;56.52;96770.19;10348891;28;96838;-65
2022/05/26 07:48:32;;;;;;;1.92;0.60;;;;;;;15.64;55.50;96778.47;10361702;28;98160;-65
2022/05/26 07:53:35;;;;;;;1.15;0.65;;;;;;;15.93;55.28;96769.16;10356101;28;103410;-65
2022/05/26 07:58:39;;;;;;;0.68;0.40;;;;;;;16.16;54.65;96771.94;10365498;28;98887;-65
2022/05/26 08:03:42;;;;;;;1.17;0.40;;;;;;;16.50;53.57;96771.66;10363668;28;96863;-65
2022/05/26 08:08:45;;;;;;;1.58;0.70;;;;;;;16.63;53.24;96769.25;10364591;28;97267;-65
2022/05/26 08:13:50;;;;;;;0.98;0.50;;;;;;;16.66;52.98;96767.25;10355110;28;96892;-65
2022/05/26 08:18:52;;;;;;;1.15;0.57;;;;;;;16.65;52.88;96782.28;10362524;28;97634;-65
2022/05/26 08:23:56;;;;;;;3.20;0.65;;;;;;;16.70;53.01;96776.47;10362441;28;96986;-65
2022/05/26 08:29:00;;;;;;;2.40;0.50;;;;;;;16.80;52.37;96774.47;10372889;28;96986;-65
2022/05/26 08:34:03;;;;;;;;;;;;;;;16.78;52.71;96777.28;10351539;28;98346;-65
2022/05/26 08:39:07;;;;;;;1.40;0.50;;;;;;;16.94;52.26;96771.09;10345840;28;98796;-65
2022/05/26 08:44:18;;;;;;;1.23;0.53;;;;;;;16.98;52.13;96777.66;10346534;28;99964;-65
2022/05/26 08:49:27;;;;;;;5.60;0.70;;;;;;;17.09;50.70;96778.25;10354065;28;96844;-65
2022/05/26 08:54:34;;;;;;;1.08;0.40;;;;;;;17.04;50.65;96785.88;10363675;28;98970;-66
2022/05/26 08:59:41;;;;;;;0.75;0.40;;;;;;;17.17;50.62;96783.47;10370915;28;97058;-65
2022/05/26 09:04:45;;;;;;;1.48;0.50;;;;;;;17.26;49.98;96782.41;10356169;28;96969;-65
2022/05/26 09:15:19;;;;;;;2.15;0.60;;;;;;;17.53;48.93;96782.88;10363898;28;97657;-65
2022/05/26 09:20:33;;;;;;;0.52;0.38;;;;;;;17.57;49.58;96786.81;10349831;28;97033;-65
2022/05/26 09:25:38;;;;;;;0.82;0.50;;;;;;;17.80;49.60;96785.94;10352932;28;98627;-66
2022/05/26 09:30:43;;;;;;;1.52;0.50;;;;;;;18.03;48.98;96788.53;10351976;28;96994;-65
2022/05/26 09:35:46;;;;;;;;;;;;;;;18.07;49.37;96788.00;10367045;28;96806;-65
2022/05/26 09:40:49;;;;;;;3.05;0.50;;;;;;;18.24;48.11;96796.59;10345434;28;97173;-65
2022/05/26 09:45:56;;;;;;;2.75;0.65;;;;;;;18.21;47.95;96798.78;10342928;28;96833;-65
2022/05/26 09:51:11;;;;;;;1.83;0.40;;;;;;;18.26;47.58;96788.47;10354334;28;97004;-65
2022/05/26 09:56:28;;;;;;;1.08;0.50;;;;;;;18.24;47.29;96798.44;10360715;28;97780;-65
2022/05/26 10:01:43;;;;;;;1.77;0.40;;;;;;;18.27;47.26;96792.75;10358841;28;98152;-65
2022/05/26 10:06:53;;;;;;;2.28;0.50;;;;;;;18.37;46.55;96788.00;10356302;28;96910;-65
2022/05/26 10:12:07;;;;;;;2.33;0.80;;;;;;;18.72;46.71;96785.59;10344493;28;97024;-65
2022/05/26 10:17:21;;;;;;;3.13;0.70;;;;;;;19.00;46.32;96776.97;10346503;28;98459;-65
2022/05/26 10:22:39;;;;;;;1.13;0.50;;;;;;;19.15;45.79;96775.09;10338417;28;97060;-65
2022/05/26 10:28:00;;;;;;;1.90;0.40;;;;;;;19.40;46.05;96764.97;10346597;28;97164;-66
2022/05/26 10:33:19;;;;;;;2.30;0.68;;;;;;;19.55;46.48;96769.34;10353218;28;97055;-66
2022/05/26 10:38:38;;;;;;;1.42;0.63;;;;;;;19.34;45.97;96764.88;10356117;28;96716;-66
2022/05/26 10:43:46;;;;;;;0.70;0.50;;;;;;;19.44;45.63;96760.09;10336458;28;96934;-66
2022/05/26 10:49:00;;;;;;;0.80;0.57;;;;;;;19.57;44.67;96762.84;10358168;28;97197;-66
2022/05/26 10:54:08;;;;;;;1.42;0.60;;;;;;;19.79;44.86;96762.81;10346475;28;96860;-66
2022/05/26 10:59:19;;;;;;;1.30;0.73;;;;;;;19.89;44.78;96760.66;10358732;28;98040;-66
2022/05/26 11:04:28;;;;;;;1.00;0.40;;;;;;;20.10;44.69;96757.13;10358746;28;96727;-66
2022/05/26 11:09:38;;;;;;;1.67;0.65;;;;;;;20.16;44.54;96764.28;10347240;28;97096;-66
2022/05/26 11:20:12;;;;;;;3.83;2.05;;;;;;;20.43;44.23;96755.69;10356529;28;98934;-63
2022/05/26 11:25:24;;;;;;;1.33;0.57;;;;;;;20.64;43.04;96755.53;10343677;28;98169;-63
2022/05/26 11:36:17;;;;;;;1.48;0.90;;;;;;;21.02;43.19;96739.16;10360021;28;97141;-66
2022/05/26 11:41:30;;;;;;;1.98;0.70;;;;;;;20.76;42.67;96742.56;10359960;28;96936;-66
2022/05/26 11:46:49;;;;;;;1.88;0.50;;;;;;;20.80;43.53;96732.34;10366509;28;98035;-66
2022/05/26 11:51:54;;;;;;;2.25;0.50;;;;;;;21.13;42.95;96732.41;10368931;28;97195;-66
2022/05/26 11:56:57;;;;;;;1.73;0.50;;;;;;;21.31;42.82;96732.66;10351399;28;97151;-66
2022/05/26 12:02:32;;;;;;;2.05;0.65;;;;;;;21.56;42.62;96728.56;10353634;28;96932;-66
2022/05/26 12:07:39;;;;;;;1.40;0.50;;;;;;;21.82;42.25;96723.25;10334244;28;96997;-66
2022/05/26 12:12:42;;;;;;;1.15;0.43;;;;;;;21.80;41.58;96714.66;10356058;28;97066;-66
2022/05/26 12:17:48;;;;;;;0.97;0.60;;;;;;;21.45;42.33;96709.53;10354314;28;97083;-66
2022/05/26 12:23:28;;;;;;;1.52;0.52;;;;;;;21.73;42.15;96702.38;10360364;28;102358;-66
2022/05/26 12:28:32;;;;;;;2.00;0.82;;;;;;;21.71;41.93;96699.94;10350956;28;96744;-66
2022/05/26 12:34:20;;;;;;;0.35;0.30;;;;;;;22.17;41.32;96701.66;10366807;28;97564;-66
2022/05/26 12:40:02;;;;;;;1.60;0.50;;;;;;;22.39;41.15;96699.56;10279282;28;100231;-66
2022/05/26 12:45:26;;;;;;;3.35;0.50;;;;;;;22.60;40.42;96682.47;10266034;28;96879;-66
2022/05/26 12:50:31;;;;;;;;;;;;;;;22.85;41.08;96672.91;10270384;28;97539;-66
2022/05/26 12:55:41;;;;;;;1.40;0.45;;;;;;;22.89;40.29;96669.63;10269070;28;98829;-66
2022/05/26 13:00:47;;;;;;;2.70;0.85;;;;;;;23.29;39.55;96666.69;10271847;28;97221;-66
2022/05/26 13:05:59;;;;;;;1.80;0.90;;;;;;;23.38;39.56;96661.91;10269263;28;97181;-66
2022/05/26 13:11:04;;;;;;;1.85;0.60;;;;;;;23.36;39.35;96648.78;10349570;28;97022;-66
2022/05/26 13:16:31;;;;;;;1.63;0.60;;;;;;;23.48;39.21;96650.72;10349399;28;96884;-66
2022/05/26 13:21:34;;;;;;;1.95;0.65;;;;;;;23.70;38.97;96649.25;10347056;28;96918;-66
2022/05/26 13:26:37;;;;;;;0.65;0.52;;;;;;;23.57;39.82;96641.41;10350972;28;97827;-66
2022/05/26 13:37:17;;;;;;;1.52;0.55;;;;;;;24.21;38.26;96622.44;10365431;28;96811;-66
2022/05/26 13:42:21;;;;;;;3.13;0.70;;;;;;;24.37;38.62;96632.53;10358745;28;96968;-66
2022/05/26 13:47:25;;;;;;;1.30;0.57;;;;;;;24.65;37.43;96623.09;10356593;27;96870;-66
2022/05/26 13:52:30;;;;;;;2.88;0.57;;;;;;;24.63;37.48;96614.50;10362000;28;96856;-66
2022/05/26 13:57:40;;;;;;;1.20;0.50;;;;;;;24.79;37.35;96608.50;10359655;28;97571;-66
2022/05/26 14:02:52;;;;;;;1.65;0.45;;;;;;;25.43;36.17;96613.25;10358382;28;96850;-66
2022/05/26 14:08:09;;;;;;;1.65;0.50;;;;;;;26.48;34.53;96613.31;10349407;28;96887;-66
2022/05/26 14:13:25;;;;;;;1.65;0.60;;;;;;;27.75;33.50;96605.72;10364557;28;98394;-67
2022/05/26 14:18:37;;;;;;;3.05;0.57;;;;;;;28.31;32.57;96597.56;10355283;28;98772;-67
2022/05/26 14:23:48;;;;;;;2.40;1.15;;;;;;;29.84;30.98;96601.75;10357181;28;97148;-67
2022/05/26 14:28:51;;;;;;;1.20;0.50;;;;;;;31.67;28.97;96598.78;10357008;28;97257;-67
2022/05/26 14:34:02;;;;;;;2.28;0.68;;;;;;;32.46;27.02;96599.84;10355355;28;98174;-67
2022/05/26 14:39:04;;;;;;;2.63;0.70;;;;;;;31.86;27.54;96602.50;10344792;28;96775;-67
2022/05/26 14:44:11;;;;;;;1.73;0.50;;;;;;;30.55;28.34;96600.41;10344284;28;97235;-67
2022/05/26 14:49:15;;;;;;;1.98;1.08;;;;;;;29.51;29.39;96599.13;10344409;28;96865;-67
2022/05/26 14:59:40;;;;;;;2.20;0.50;;;;;;;29.91;28.76;96599.63;10346625;28;101230;-67
2022/05/26 15:04:46;;;;;;;2.15;0.60;;;;;;;31.68;27.32;96595.03;10342645;28;97236;-67
2022/05/26 15:09:49;;;;;;;1.73;0.50;;;;;;;32.88;26.04;96589.59;10358715;28;97081;-67
2022/05/26 15:14:53;;;;;;;1.23;0.47;;;;;;;33.59;25.47;96593.56;10345607;28;97574;-68
2022/05/26 15:20:01;;;;;;;1.85;0.40;;;;;;;34.07;24.65;96590.03;10354133;28;98371;-67
2022/05/26 15:25:06;;;;;;;1.90;0.43;;;;;;;33.25;25.06;96599.03;10355101;28;96911;-67
2022/05/26 15:30:12;;;;;;;2.17;0.50;;;;;;;32.57;25.93;96595.19;10347890;28;98761;-67
2022/05/26 15:35:18;;;;;;;0.95;0.43;;;;;;;32.83;26.17;96587.72;10359299;28;96887;-67
2022/05/26 15:40:26;;;;;;;1.60;0.70;;;;;;;34.51;24.33;96586.25;10355209;28;97065;-67
2022/05/26 15:45:30;;;;;;;1.35;0.52;;;;;;;34.15;24.11;96594.84;10335082;28;96785;-67
2022/05/26 15:50:35;;;;;;;3.00;0.55;;;;;;;33.28;25.29;96587.66;10349008;28;97010;-67
2022/05/26 15:55:38;;;;;;;1.38;0.43;;;;;;;32.79;26.10;96583.97;10344550;28;97072;-67
2022/05/26 16:00:41;;;;;;;0.95;0.45;;;;;;;31.67;27.01;96590.69;10353833;28;98581;-67
2022/05/26 16:05:45;;;;;;;2.00;0.50;;;;;;;31.28;27.42;96585.91;10358774;28;97311;-67
2022/05/26 16:10:49;;;;;;;2.42;0.60;;;;;;;31.78;26.63;96576.09;10355307;28;96826;-65
2022/05/26 16:15:52;;;;;;;1.88;0.70;;;;;;;32.81;25.85;96583.69;10359642;28;97668;-67
2022/05/26 16:20:57;;;;;;;1.48;0.38;;;;;;;32.62;26.24;96580.84;10353244;28;97025;-67
2022/05/26 16:26:00;;;;;;;2.10;0.80;;;;;;;31.01;27.70;96562.69;10349544;28;97078;-66
2022/05/26 16:31:03;;;;;;;1.13;0.50;;;;;;;30.70;28.51;96570.75;10364818;28;96759;-67
2022/05/26 16:41:29;;;;;;;0.63;0.35;;;;;;;31.58;27.57;96569.66;10357262;28;96906;-66
2022/05/26 16:46:32;;;;;;;2.20;0.50;;;;;;;31.31;28.33;96558.34;10369013;28;97342;-67
2022/05/26 16:51:40;;;;;;;3.42;0.68;;;;;;;31.01;28.15;96562.69;10342918;28;100380;-68
2022/05/26 16:56:43;;;;;;;2.22;0.57;;;;;;;30.62;28.92;96563.22;10350171;28;97137;-67
2022/05/26 17:01:46;;;;;;;2.30;0.80;;;;;;;30.26;29.55;96568.53;10358397;28;98638;-68
2022/05/26 17:06:51;;;;;;;2.00;0.98;;;;;;;30.24;29.35;96570.69;10354657;28;96775;-66
2022/05/26 17:11:54;;;;;;;1.90;0.90;;;;;;;29.96;30.13;96572.72;10347399;28;97713;-66
2022/05/26 17:22:28;;;;;;;4.18;2.80;;;;;;;29.49;30.14;96573.56;10326542;28;99725;-67
2022/05/26 17:27:36;;;;;;;1.25;0.70;;;;;;;28.90;31.42;96571.78;10318431;28;96991;-69
2022/05/26 17:32:39;;;;;;;2.00;1.27;;;;;;;28.11;32.08;96563.19;10316707;28;100772;-69
2022/05/26 17:37:45;;;;;;;2.72;0.63;;;;;;;27.60;32.92;96566.03;10309320;28;98517;-72
2022/05/26 17:42:47;;;;;;;1.65;1.10;;;;;;;26.97;33.30;96565.41;10316492;28;97370;-68
2022/05/26 17:47:50;;;;;;;;;;;;;;;26.84;33.15;96573.72;10309298;28;98298;-69
2022/05/26 17:52:55;;;;;;;1.17;0.60;;;;;;;26.35;33.84;96577.72;10308450;28;98862;-72
2022/05/26 17:58:04;;;;;;;2.50;0.40;;;;;;;25.50;34.97;96581.84;10340193;28;96939;-66
2022/05/26 18:03:11;;;;;;;4.20;3.13;;;;;;;24.29;37.25;96571.41;10369137;28;96828;-71
2022/05/26 18:08:16;;;;;;;2.10;0.68;;;;;;;23.59;38.13;96574.53;10368040;28;97499;-69
2022/05/26 18:13:19;;;;;;;2.00;0.70;;;;;;;23.31;38.28;96573.97;10364433;28;97103;-68
2022/05/26 18:18:25;;;;;;;4.13;0.68;;;;;;;22.98;39.04;96575.06;10361750;28;96973;-68
2022/05/26 18:23:31;;;;;;;1.85;0.60;;;;;;;22.84;39.43;96581.53;10366872;28;97254;-70
2022/05/26 18:28:34;;;;;;;19.40;9.80;;;;;;;22.43;40.15;96583.63;10362035;28;98678;-67
2022/05/26 18:33:37;;;;;;;2.95;1.30;;;;;;;21.96;40.73;96580.41;10350680;28;97978;-69
2022/05/26 18:38:42;;;;;;;2.80;0.95;;;;;;;21.54;41.58;96584.41;10356896;28;97177;-69
2022/05/26 18:43:45;;;;;;;1.98;0.70;;;;;;;21.34;42.42;96582.59;10354140;28;99251;-69
2022/05/26 18:48:50;;;;;;;2.80;0.60;;;;;;;21.05;42.85;96583.84;10357404;28;97138;-69
2022/05/26 18:53:54;;;;;;;1.80;0.60;;;;;;;20.86;42.90;96590.78;10359206;28;100667;-69
2022/05/26 18:58:57;;;;;;;1.50;0.70;;;;;;;20.55;43.72;96594.84;10343067;28;97510;-69
2022/05/26 19:04:01;;;;;;;1.93;0.70;;;;;;;20.27;44.48;96594.97;10357635;28;98668;-69
2022/05/26 19:09:07;;;;;;;2.22;0.60;;;;;;;20.14;44.74;96587.81;10353558;28;97594;-69
2022/05/26 19:14:13;;;;;;;1.98;0.60;;;;;;;20.19;44.88;96596.78;10347811;28;98474;-69
2022/05/26 19:19:17;;;;;;;1.95;0.90;;;;;;;20.11;44.53;96604.09;10349869;28;99141;-69
2022/05/26 19:24:21;;;;;;;1.38;0.57;;;;;;;20.07;45.39;96614.28;10345890;28;99090;-69
2022/05/26 19:29:28;;;;;;;1.63;0.80;;;;;;;19.96;45.20;96623.66;10350057;28;97651;-69
2022/05/26 19:34:31;;;;;;;1.88;0.70;;;;;;;20.04;44.80;96629.78;10343347;28;97291;-69
2022/05/26 19:39:35;;;;;;;1.85;0.60;;;;;;;20.04;44.39;96635.09;10348665;28;98307;-69
2022/05/26 19:44:41;;;;;;;4.00;0.90;;;;;;;20.07;44.24;96651.44;10345831;28;99017;-69
2022/05/26 19:49:44;;;;;;;1.80;0.77;;;;;;;20.06;44.67;96655.13;10337652;28;97063;-69
2022/05/26 19:54:48;;;;;;;1.23;0.80;;;;;;;20.06;44.37;96665.72;10347822;28;97294;-69
2022/05/26 20:00:24;;;;;;;3.40;1.00;;;;;;;19.97;44.82;96666.88;10349783;28;98608;-70
2022/05/26 20:05:37;;;;;;;2.53;0.82;;;;;;;19.80;45.66;96671.66;10334266;28;96927;-69
2022/05/26 20:10:41;;;;;;;2.92;1.00;;;;;;;19.73;46.11;96679.59;10354398;28;97079;-69
2022/05/26 20:15:45;;;;;;;;;;;;;;;19.56;44.62;96681.72;10340060;28;96959;-69
2022/05/26 22:11:38;;;;;;;1.85;1.00;;;;;;;14.53;52.95;96763.81;10423164;27;97052;-66
2022/05/26 22:16:43;;;;;;;;;;;;;;;14.65;52.16;96761.72;10400780;27;97582;-66
2022/05/26 22:21:49;;;;;;;2.40;0.90;;;;;;;14.70;54.75;96759.44;10409150;27;97557;-65
2022/05/26 22:26:54;;;;;;;5.72;4.28;;;;;;;14.82;55.89;96762.56;10402614;27;97005;-68
2022/05/26 22:31:59;;;;;;;6.65;4.38;;;;;;;14.90;55.96;96770.47;10408801;27;96829;-68
2022/05/26 22:37:01;;;;;;;2.60;0.77;;;;;;;14.96;56.16;96769.84;10395692;27;97178;-68
2022/05/26 22:42:06;;;;;;;1.13;0.82;;;;;;;14.97;56.92;96766.22;10410233;27;97037;-68
2022/05/26 22:47:09;;;;;;;0.88;0.70;;;;;;;14.79;57.39;96757.66;10414601;27;96816;-68
2022/05/26 22:52:12;;;;;;;2.00;0.90;;;;;;;14.78;57.06;96761.25;10414283;27;98152;-68
2022/05/26 22:57:18;;;;;;;1.67;1.05;;;;;;;14.81;56.47;96766.19;10409304;27;100760;-68
2022/05/26 23:02:20;;;;;;;4.47;1.40;;;;;;;14.77;57.04;96765.69;10408511;27;97098;-68
2022/05/26 23:07:24;;;;;;;3.03;1.50;;;;;;;14.69;57.16;96769.13;10411166;27;98546;-68
2022/05/26 23:12:30;;;;;;;2.03;0.98;;;;;;;14.53;58.41;96774.34;10410053;28;97177;-68
2022/05/26 23:17:33;;;;;;;4.90;0.90;;;;;;;14.22;58.54;96781.91;10400558;28;96857;-68
2022/05/26 23:22:36;;;;;;;2.13;0.85;;;;;;;14.05;59.94;96778.38;10367957;28;96872;-68
2022/05/26 23:27:40;;;;;;;1.33;0.80;;;;;;;14.00;59.99;96769.16;10370372;28;97761;-68
2022/05/26 23:32:43;;;;;;;3.15;0.80;;;;;;;13.93;59.76;96765.50;10368815;28;96956;-68
2022/05/26 23:37:47;;;;;;;3.47;1.02;;;;;;;13.95;59.80;96755.66;10364739;28;97117;-68
2022/05/26 23:48:11;;;;;;;1.13;0.70;;;;;;;13.88;60.10;96744.16;10376728;28;97706;-68
2022/05/26 23:53:14;;;;;;;1.55;0.80;;;;;;;13.83;60.21;96741.16;10379141;28;96889;-68
2022/05/26 23:58:18;;;;;;;1.90;0.77;;;;;;;13.71;60.11;96737.97;10379446;28;99007;-68
